sensor_id;sensor_type;location;lat;lon;timestamp;pressure;altitude;pressure_sealevel;temperature;humidity
51099;BME280;37146;48.210;16.234;2022-09-29T00:00:38;97446.19;;;10.72;100.00
51099;BME280;37146;48.210;16.234;2022-09-29T00:03:04;97449.84;;;10.71;100.00
51099;BME280;37146;48.210;16.234;2022-09-29T00:05:29;97449.72;;;10.73;100.00
51099;BME280;37146;48.210;16.234;2022-09-29T00:07:55;97451.03;;;10.67;100.00
51099;BME280;37146;48.210;16.234;2022-09-29T00:10:20;97450.19;;;10.66;100.00
51099;BME280;37146;48.210;16.234;2022-09-29T00:12:45;97452.00;;;10.66;100.00
51099;BME280;37146;48.210;16.234;2022-09-29T00:15:11;97452.88;;;10.66;100.00
51099;BME280;37146;48.210;16.234;2022-09-29T00:17:36;97450.41;;;10.63;100.00
51099;BME280;37146;48.210;16.234;2022-09-29T00:20:02;97456.97;;;10.59;100.00
51099;BME280;37146;48.210;16.234;2022-09-29T00:22:28;97460.63;;;10.58;100.00
51099;BME280;37146;48.210;16.234;2022-09-29T00:24:53;97464.97;;;10.59;100.00
51099;BME280;37146;48.210;16.234;2022-09-29T00:27:18;97445.56;;;10.57;100.00
51099;BME280;37146;48.210;16.234;2022-09-29T00:29:43;97451.00;;;10.56;100.00
51099;BME280;37146;48.210;16.234;2022-09-29T00:32:09;97454.53;;;10.56;100.00
51099;BME280;37146;48.210;16.234;2022-09-29T00:34:34;97460.97;;;10.54;100.00
51099;BME280;37146;48.210;16.234;2022-09-29T00:36:59;97458.78;;;10.47;100.00
51099;BME280;37146;48.210;16.234;2022-09-29T00:39:25;97462.41;;;10.46;100.00
51099;BME280;37146;48.210;16.234;2022-09-29T00:41:50;97450.97;;;10.44;100.00
51099;BME280;37146;48.210;16.234;2022-09-29T00:46:48;97450.13;;;10.44;100.00
51099;BME280;37146;48.210;16.234;2022-09-29T00:49:16;97448.31;;;10.44;100.00
51099;BME280;37146;48.210;16.234;2022-09-29T00:51:44;97454.00;;;10.40;100.00
51099;BME280;37146;48.210;16.234;2022-09-29T00:54:11;97462.16;;;10.38;100.00
51099;BME280;37146;48.210;16.234;2022-09-29T00:56:36;97453.56;;;10.33;100.00
51099;BME280;37146;48.210;16.234;2022-09-29T00:59:03;97452.50;;;10.35;100.00
51099;BME280;37146;48.210;16.234;2022-09-29T01:01:31;97451.03;;;10.31;100.00
51099;BME280;37146;48.210;16.234;2022-09-29T01:04:01;97454.19;;;10.25;100.00
51099;BME280;37146;48.210;16.234;2022-09-29T01:06:30;97455.59;;;10.18;100.00
51099;BME280;37146;48.210;16.234;2022-09-29T01:09:07;97451.22;;;10.17;100.00
51099;BME280;37146;48.210;16.234;2022-09-29T01:11:33;97454.75;;;10.17;100.00
51099;BME280;37146;48.210;16.234;2022-09-29T01:13:59;97448.53;;;10.17;100.00
51099;BME280;37146;48.210;16.234;2022-09-29T01:16:30;97449.84;;;10.11;100.00
51099;BME280;37146;48.210;16.234;2022-09-29T01:18:57;97452.44;;;10.13;100.00
51099;BME280;37146;48.210;16.234;2022-09-29T01:34:28;97454.75;;;9.93;100.00
51099;BME280;37146;48.210;16.234;2022-09-29T01:39:36;97461.69;;;9.96;100.00
51099;BME280;37146;48.210;16.234;2022-09-29T01:44:38;97467.13;;;9.94;100.00
51099;BME280;37146;48.210;16.234;2022-09-29T01:47:11;97472.72;;;9.91;100.00
51099;BME280;37146;48.210;16.234;2022-09-29T01:49:39;97470.69;;;9.95;100.00
51099;BME280;37146;48.210;16.234;2022-09-29T01:52:20;97466.19;;;9.95;100.00
51099;BME280;37146;48.210;16.234;2022-09-29T01:54:48;97469.94;;;9.93;100.00
51099;BME280;37146;48.210;16.234;2022-09-29T01:57:38;97474.31;;;9.94;100.00
51099;BME280;37146;48.210;16.234;2022-09-29T02:00:13;97467.25;;;9.93;100.00
51099;BME280;37146;48.210;16.234;2022-09-29T02:02:48;97465.06;;;9.86;100.00
51099;BME280;37146;48.210;16.234;2022-09-29T02:05:15;97467.06;;;9.83;100.00
51099;BME280;37146;48.210;16.234;2022-09-29T02:07:43;97469.75;;;9.83;100.00
51099;BME280;37146;48.210;16.234;2022-09-29T02:10:09;97469.25;;;9.78;100.00
51099;BME280;37146;48.210;16.234;2022-09-29T02:12:37;97459.00;;;9.71;100.00
51099;BME280;37146;48.210;16.234;2022-09-29T02:15:05;97464.25;;;9.73;100.00
51099;BME280;37146;48.210;16.234;2022-09-29T02:17:35;97454.63;;;9.70;100.00
51099;BME280;37146;48.210;16.234;2022-09-29T02:20:00;97467.13;;;9.70;100.00
51099;BME280;37146;48.210;16.234;2022-09-29T02:22:26;97465.53;;;9.67;100.00
51099;BME280;37146;48.210;16.234;2022-09-29T02:24:53;97472.19;;;9.62;100.00
51099;BME280;37146;48.210;16.234;2022-09-29T02:27:20;97470.47;;;9.61;100.00
51099;BME280;37146;48.210;16.234;2022-09-29T02:29:45;97467.19;;;9.57;100.00
51099;BME280;37146;48.210;16.234;2022-09-29T02:32:11;97457.38;;;9.44;100.00
51099;BME280;37146;48.210;16.234;2022-09-29T02:34:38;97460.56;;;9.50;100.00
51099;BME280;37146;48.210;16.234;2022-09-29T02:55:43;97477.88;;;9.44;100.00
51099;BME280;37146;48.210;16.234;2022-09-29T02:58:12;97481.63;;;9.41;100.00
51099;BME280;37146;48.210;16.234;2022-09-29T03:00:39;97484.28;;;9.41;100.00
51099;BME280;37146;48.210;16.234;2022-09-29T03:03:05;97483.22;;;9.44;100.00
51099;BME280;37146;48.210;16.234;2022-09-29T03:05:30;97481.28;;;9.46;100.00
51099;BME280;37146;48.210;16.234;2022-09-29T03:07:55;97475.94;;;9.46;100.00
51099;BME280;37146;48.210;16.234;2022-09-29T03:10:21;97479.56;;;9.45;100.00
51099;BME280;37146;48.210;16.234;2022-09-29T03:12:46;97485.03;;;9.43;100.00
51099;BME280;37146;48.210;16.234;2022-09-29T03:15:11;97489.84;;;9.38;100.00
51099;BME280;37146;48.210;16.234;2022-09-29T03:17:37;97493.69;;;9.34;100.00
51099;BME280;37146;48.210;16.234;2022-09-29T03:20:03;97494.34;;;9.38;100.00
51099;BME280;37146;48.210;16.234;2022-09-29T03:22:29;97494.44;;;9.36;100.00
51099;BME280;37146;48.210;16.234;2022-09-29T03:24:54;97500.50;;;9.38;100.00
51099;BME280;37146;48.210;16.234;2022-09-29T03:27:19;97501.25;;;9.40;100.00
51099;BME280;37146;48.210;16.234;2022-09-29T03:29:44;97506.59;;;9.40;100.00
51099;BME280;37146;48.210;16.234;2022-09-29T03:32:10;97495.16;;;9.38;100.00
51099;BME280;37146;48.210;16.234;2022-09-29T03:34:35;97499.56;;;9.39;100.00
51099;BME280;37146;48.210;16.234;2022-09-29T03:37:00;97505.84;;;9.38;100.00
51099;BME280;37146;48.210;16.234;2022-09-29T03:39:26;97497.53;;;9.30;100.00
51099;BME280;37146;48.210;16.234;2022-09-29T03:41:51;97499.47;;;9.28;100.00
51099;BME280;37146;48.210;16.234;2022-09-29T03:44:16;97496.59;;;9.31;100.00
51099;BME280;37146;48.210;16.234;2022-09-29T03:46:42;97501.78;;;9.33;100.00
51099;BME280;37146;48.210;16.234;2022-09-29T03:49:10;97499.03;;;9.34;100.00
51099;BME280;37146;48.210;16.234;2022-09-29T03:51:36;97504.38;;;9.34;100.00
51099;BME280;37146;48.210;16.234;2022-09-29T03:54:01;97496.38;;;9.34;100.00
51099;BME280;37146;48.210;16.234;2022-09-29T03:56:27;97500.84;;;9.34;100.00
51099;BME280;37146;48.210;16.234;2022-09-29T03:58:52;97499.78;;;9.36;100.00
51099;BME280;37146;48.210;16.234;2022-09-29T04:01:17;97499.03;;;9.34;100.00
51099;BME280;37146;48.210;16.234;2022-09-29T04:03:42;97505.34;;;9.33;100.00
51099;BME280;37146;48.210;16.234;2022-09-29T04:06:07;97492.00;;;9.33;100.00
51099;BME280;37146;48.210;16.234;2022-09-29T04:08:36;97490.28;;;9.32;100.00
51099;BME280;37146;48.210;16.234;2022-09-29T04:11:01;97501.41;;;9.26;100.00
51099;BME280;37146;48.210;16.234;2022-09-29T04:13:26;97495.09;;;9.27;100.00
51099;BME280;37146;48.210;16.234;2022-09-29T04:15:55;97495.31;;;9.24;100.00
51099;BME280;37146;48.210;16.234;2022-09-29T04:18:21;97500.75;;;9.22;100.00
51099;BME280;37146;48.210;16.234;2022-09-29T04:20:46;97495.31;;;9.24;100.00
51099;BME280;37146;48.210;16.234;2022-09-29T04:23:11;97497.25;;;9.22;100.00
51099;BME280;37146;48.210;16.234;2022-09-29T04:25:37;97499.69;;;9.25;100.00
51099;BME280;37146;48.210;16.234;2022-09-29T04:28:02;97503.31;;;9.24;100.00
51099;BME280;37146;48.210;16.234;2022-09-29T04:30:28;97504.91;;;9.26;100.00
51099;BME280;37146;48.210;16.234;2022-09-29T04:32:53;97499.69;;;9.25;100.00
51099;BME280;37146;48.210;16.234;2022-09-29T04:35:18;97495.53;;;9.21;100.00
51099;BME280;37146;48.210;16.234;2022-09-29T04:37:43;97488.47;;;9.20;100.00
51099;BME280;37146;48.210;16.234;2022-09-29T04:40:09;97489.56;;;9.17;100.00
51099;BME280;37146;48.210;16.234;2022-09-29T04:42:34;97488.69;;;9.17;100.00
51099;BME280;37146;48.210;16.234;2022-09-29T04:44:59;97493.31;;;9.15;100.00
51099;BME280;37146;48.210;16.234;2022-09-29T04:47:25;97490.53;;;9.16;100.00
51099;BME280;37146;48.210;16.234;2022-09-29T04:49:50;97488.47;;;9.20;100.00
51099;BME280;37146;48.210;16.234;2022-09-29T04:52:15;97486.97;;;9.16;100.00
51099;BME280;37146;48.210;16.234;2022-09-29T04:54:40;97484.56;;;9.12;100.00
51099;BME280;37146;48.210;16.234;2022-09-29T04:57:06;97489.03;;;9.12;100.00
51099;BME280;37146;48.210;16.234;2022-09-29T04:59:31;97494.47;;;9.10;100.00
51099;BME280;37146;48.210;16.234;2022-09-29T05:01:57;97486.59;;;9.09;100.00
51099;BME280;37146;48.210;16.234;2022-09-29T05:04:22;97496.25;;;9.10;100.00
51099;BME280;37146;48.210;16.234;2022-09-29T05:06:47;97496.84;;;9.02;100.00
51099;BME280;37146;48.210;16.234;2022-09-29T05:09:13;97494.69;;;9.07;100.00
51099;BME280;37146;48.210;16.234;2022-09-29T05:11:38;97483.16;;;9.07;100.00
51099;BME280;37146;48.210;16.234;2022-09-29T05:14:04;97495.63;;;9.06;100.00
51099;BME280;37146;48.210;16.234;2022-09-29T05:16:29;97494.38;;;8.99;100.00
51099;BME280;37146;48.210;16.234;2022-09-29T05:18:54;97501.63;;;8.97;100.00
51099;BME280;37146;48.210;16.234;2022-09-29T05:21:20;97505.34;;;8.94;100.00
51099;BME280;37146;48.210;16.234;2022-09-29T05:23:45;97504.59;;;8.92;100.00
51099;BME280;37146;48.210;16.234;2022-09-29T05:26:11;97501.09;;;8.92;100.00
51099;BME280;37146;48.210;16.234;2022-09-29T05:28:37;97501.81;;;8.94;100.00
51099;BME280;37146;48.210;16.234;2022-09-29T05:31:06;97497.03;;;8.86;100.00
51099;BME280;37146;48.210;16.234;2022-09-29T05:33:32;97502.25;;;8.88;100.00
51099;BME280;37146;48.210;16.234;2022-09-29T05:35:57;97505.69;;;8.90;100.00
51099;BME280;37146;48.210;16.234;2022-09-29T05:38:23;97509.19;;;8.90;100.00
51099;BME280;37146;48.210;16.234;2022-09-29T05:40:49;97521.47;;;8.93;100.00
51099;BME280;37146;48.210;16.234;2022-09-29T05:43:14;97522.31;;;8.93;100.00
51099;BME280;37146;48.210;16.234;2022-09-29T05:45:39;97539.16;;;8.94;100.00
51099;BME280;37146;48.210;16.234;2022-09-29T05:48:04;97535.66;;;8.93;100.00
51099;BME280;37146;48.210;16.234;2022-09-29T05:50:29;97542.81;;;8.93;100.00
51099;BME280;37146;48.210;16.234;2022-09-29T05:53:00;97535.13;;;9.01;100.00
51099;BME280;37146;48.210;16.234;2022-09-29T05:55:26;97529.78;;;9.01;100.00
51099;BME280;37146;48.210;16.234;2022-09-29T05:57:51;97531.25;;;9.05;100.00
51099;BME280;37146;48.210;16.234;2022-09-29T06:00:16;97536.06;;;9.00;100.00
51099;BME280;37146;48.210;16.234;2022-09-29T06:02:41;97539.38;;;8.91;100.00
51099;BME280;37146;48.210;16.234;2022-09-29T06:05:07;97546.63;;;8.89;100.00
51099;BME280;37146;48.210;16.234;2022-09-29T06:07:32;97545.66;;;8.90;100.00
51099;BME280;37146;48.210;16.234;2022-09-29T06:09:57;97551.41;;;8.84;100.00
51099;BME280;37146;48.210;16.234;2022-09-29T06:12:22;97554.94;;;8.84;100.00
51099;BME280;37146;48.210;16.234;2022-09-29T06:14:48;97542.56;;;8.83;100.00
51099;BME280;37146;48.210;16.234;2022-09-29T06:17:13;97542.06;;;8.91;100.00
51099;BME280;37146;48.210;16.234;2022-09-29T06:19:38;97534.56;;;8.96;100.00
51099;BME280;37146;48.210;16.234;2022-09-29T06:22:03;97539.59;;;9.01;100.00
51099;BME280;37146;48.210;16.234;2022-09-29T06:24:29;97534.69;;;8.94;100.00
51099;BME280;37146;48.210;16.234;2022-09-29T06:26:54;97542.13;;;8.89;100.00
51099;BME280;37146;48.210;16.234;2022-09-29T06:29:19;97535.75;;;8.92;100.00
51099;BME280;37146;48.210;16.234;2022-09-29T06:31:44;97532.88;;;8.95;100.00
51099;BME280;37146;48.210;16.234;2022-09-29T06:34:10;97536.16;;;8.98;100.00
51099;BME280;37146;48.210;16.234;2022-09-29T06:36:41;97531.69;;;8.99;100.00
51099;BME280;37146;48.210;16.234;2022-09-29T06:39:26;97547.50;;;9.02;100.00
51099;BME280;37146;48.210;16.234;2022-09-29T06:41:51;97538.09;;;9.09;100.00
51099;BME280;37146;48.210;16.234;2022-09-29T06:44:24;97553.13;;;9.23;100.00
51099;BME280;37146;48.210;16.234;2022-09-29T06:46:49;97549.00;;;9.19;100.00
51099;BME280;37146;48.210;16.234;2022-09-29T06:49:15;97550.25;;;9.26;100.00
51099;BME280;37146;48.210;16.234;2022-09-29T06:51:41;97550.50;;;9.36;100.00
51099;BME280;37146;48.210;16.234;2022-09-29T06:54:08;97534.03;;;9.42;100.00
51099;BME280;37146;48.210;16.234;2022-09-29T06:56:33;97538.91;;;9.49;100.00
51099;BME280;37146;48.210;16.234;2022-09-29T06:58:58;97529.00;;;9.51;100.00
51099;BME280;37146;48.210;16.234;2022-09-29T07:01:23;97531.00;;;9.60;100.00
51099;BME280;37146;48.210;16.234;2022-09-29T07:03:48;97537.84;;;9.64;100.00
51099;BME280;37146;48.210;16.234;2022-09-29T07:06:14;97535.16;;;9.64;100.00
51099;BME280;37146;48.210;16.234;2022-09-29T07:08:39;97541.25;;;9.66;100.00
51099;BME280;37146;48.210;16.234;2022-09-29T07:11:08;97544.09;;;9.76;100.00
51099;BME280;37146;48.210;16.234;2022-09-29T07:13:33;97544.00;;;9.78;100.00
51099;BME280;37146;48.210;16.234;2022-09-29T07:16:09;97539.28;;;9.81;100.00
51099;BME280;37146;48.210;16.234;2022-09-29T07:18:35;97536.00;;;9.78;100.00
51099;BME280;37146;48.210;16.234;2022-09-29T07:21:02;97532.03;;;9.83;100.00
51099;BME280;37146;48.210;16.234;2022-09-29T07:23:27;97543.97;;;9.90;100.00
51099;BME280;37146;48.210;16.234;2022-09-29T07:25:52;97546.53;;;9.92;100.00
51099;BME280;37146;48.210;16.234;2022-09-29T07:28:18;97548.00;;;9.96;100.00
51099;BME280;37146;48.210;16.234;2022-09-29T07:30:43;97538.13;;;10.10;100.00
51099;BME280;37146;48.210;16.234;2022-09-29T07:33:09;97545.13;;;10.24;100.00
51099;BME280;37146;48.210;16.234;2022-09-29T07:35:34;97543.94;;;10.28;100.00
51099;BME280;37146;48.210;16.234;2022-09-29T07:37:59;97546.38;;;10.31;100.00
51099;BME280;37146;48.210;16.234;2022-09-29T07:40:24;97552.06;;;10.26;100.00
51099;BME280;37146;48.210;16.234;2022-09-29T07:42:52;97552.38;;;10.34;100.00
51099;BME280;37146;48.210;16.234;2022-09-29T07:45:17;97554.28;;;10.32;100.00
51099;BME280;37146;48.210;16.234;2022-09-29T07:47:43;97562.19;;;10.34;100.00
51099;BME280;37146;48.210;16.234;2022-09-29T07:50:08;97561.34;;;10.33;100.00
51099;BME280;37146;48.210;16.234;2022-09-29T07:52:33;97580.78;;;10.35;100.00
51099;BME280;37146;48.210;16.234;2022-09-29T07:54:59;97570.94;;;10.36;100.00
51099;BME280;37146;48.210;16.234;2022-09-29T07:57:24;97565.59;;;10.36;100.00
51099;BME280;37146;48.210;16.234;2022-09-29T07:59:49;97564.75;;;10.35;100.00
51099;BME280;37146;48.210;16.234;2022-09-29T08:02:15;97568.19;;;10.38;100.00
51099;BME280;37146;48.210;16.234;2022-09-29T08:04:41;97583.03;;;10.42;100.00
51099;BME280;37146;48.210;16.234;2022-09-29T08:07:07;97575.00;;;10.42;100.00
51099;BME280;37146;48.210;16.234;2022-09-29T08:09:33;97584.94;;;10.64;100.00
51099;BME280;37146;48.210;16.234;2022-09-29T08:11:58;97581.75;;;10.83;100.00
51099;BME280;37146;48.210;16.234;2022-09-29T08:14:23;97591.28;;;10.98;100.00
51099;BME280;37146;48.210;16.234;2022-09-29T08:16:48;97589.09;;;11.62;100.00
51099;BME280;37146;48.210;16.234;2022-09-29T08:19:14;97578.47;;;11.95;100.00
51099;BME280;37146;48.210;16.234;2022-09-29T08:21:39;97579.22;;;12.19;100.00
51099;BME280;37146;48.210;16.234;2022-09-29T08:24:05;97584.06;;;12.26;100.00
51099;BME280;37146;48.210;16.234;2022-09-29T08:26:31;97586.66;;;12.16;100.00
51099;BME280;37146;48.210;16.234;2022-09-29T08:28:57;97593.22;;;12.12;100.00
51099;BME280;37146;48.210;16.234;2022-09-29T08:31:22;97590.16;;;12.28;100.00
51099;BME280;37146;48.210;16.234;2022-09-29T08:33:47;97599.31;;;12.14;100.00
51099;BME280;37146;48.210;16.234;2022-09-29T08:36:19;97592.00;;;12.16;100.00
51099;BME280;37146;48.210;16.234;2022-09-29T08:38:45;97593.84;;;12.04;100.00
51099;BME280;37146;48.210;16.234;2022-09-29T08:44:13;97588.44;;;12.71;100.00
51099;BME280;37146;48.210;16.234;2022-09-29T08:46:42;97590.53;;;13.42;100.00
51099;BME280;37146;48.210;16.234;2022-09-29T08:49:10;97587.75;;;14.15;93.06
51099;BME280;37146;48.210;16.234;2022-09-29T08:51:39;97590.47;;;14.45;88.63
51099;BME280;37146;48.210;16.234;2022-09-29T08:54:42;97587.81;;;14.54;90.90
51099;BME280;37146;48.210;16.234;2022-09-29T08:57:00;97583.78;;;14.10;91.62
51099;BME280;37146;48.210;16.234;2022-09-29T08:59:27;97587.38;;;14.40;89.13
51099;BME280;37146;48.210;16.234;2022-09-29T09:17:08;97602.78;;;14.37;82.66
51099;BME280;37146;48.210;16.234;2022-09-29T09:24:45;97604.28;;;14.11;82.91
51099;BME280;37146;48.210;16.234;2022-09-29T09:27:12;97602.81;;;13.66;87.96
51099;BME280;37146;48.210;16.234;2022-09-29T09:29:41;97606.97;;;13.27;84.67
51099;BME280;37146;48.210;16.234;2022-09-29T09:34:41;97608.13;;;13.13;88.44
51099;BME280;37146;48.210;16.234;2022-09-29T09:37:27;97616.03;;;12.94;88.23
51099;BME280;37146;48.210;16.234;2022-09-29T09:42:23;97606.28;;;14.18;84.13
51099;BME280;37146;48.210;16.234;2022-09-29T09:44:56;97602.81;;;14.47;76.71
51099;BME280;37146;48.210;16.234;2022-09-29T09:47:32;97605.56;;;15.26;73.78
51099;BME280;37146;48.210;16.234;2022-09-29T09:49:59;97602.69;;;16.32;66.10
51099;BME280;37146;48.210;16.234;2022-09-29T09:55:00;97591.66;;;18.56;56.38
51099;BME280;37146;48.210;16.234;2022-09-29T10:00:03;97591.69;;;20.05;52.28
51099;BME280;37146;48.210;16.234;2022-09-29T10:02:30;97600.25;;;20.57;48.48
51099;BME280;37146;48.210;16.234;2022-09-29T10:04:55;97599.75;;;21.54;45.57
51099;BME280;37146;48.210;16.234;2022-09-29T10:07:22;97600.91;;;22.43;46.23
51099;BME280;37146;48.210;16.234;2022-09-29T10:09:48;97600.50;;;23.70;42.43
51099;BME280;37146;48.210;16.234;2022-09-29T10:12:15;97600.50;;;24.33;40.69
51099;BME280;37146;48.210;16.234;2022-09-29T10:14:44;97587.97;;;24.52;42.61
51099;BME280;37146;48.210;16.234;2022-09-29T10:17:12;97583.72;;;23.73;40.59
51099;BME280;37146;48.210;16.234;2022-09-29T10:19:53;97588.69;;;23.62;36.72
51099;BME280;37146;48.210;16.234;2022-09-29T10:22:18;97572.34;;;22.76;37.07
51099;BME280;37146;48.210;16.234;2022-09-29T10:24:44;97578.97;;;22.36;38.80
51099;BME280;37146;48.210;16.234;2022-09-29T10:27:09;97579.94;;;22.44;38.46
51099;BME280;37146;48.210;16.234;2022-09-29T10:32:03;97579.25;;;22.57;39.62
51099;BME280;37146;48.210;16.234;2022-09-29T10:34:29;97578.41;;;23.93;37.01
51099;BME280;37146;48.210;16.234;2022-09-29T10:36:57;97575.66;;;24.70;38.96
51099;BME280;37146;48.210;16.234;2022-09-29T10:42:23;97576.84;;;24.54;37.32
51099;BME280;37146;48.210;16.234;2022-09-29T10:44:50;97578.69;;;24.05;36.25
51099;BME280;37146;48.210;16.234;2022-09-29T10:47:15;97579.06;;;23.38;35.67
51099;BME280;37146;48.210;16.234;2022-09-29T10:49:41;97593.50;;;22.95;39.38
51099;BME280;37146;48.210;16.234;2022-09-29T10:52:14;97594.47;;;22.88;39.10
51099;BME280;37146;48.210;16.234;2022-09-29T10:54:51;97585.47;;;21.90;39.66
51099;BME280;37146;48.210;16.234;2022-09-29T10:57:19;97576.88;;;21.49;40.72
51099;BME280;37146;48.210;16.234;2022-09-29T10:59:47;97583.19;;;20.79;42.40
51099;BME280;37146;48.210;16.234;2022-09-29T11:04:59;97590.53;;;19.74;45.36
51099;BME280;37146;48.210;16.234;2022-09-29T11:07:26;97577.72;;;19.43;46.51
51099;BME280;37146;48.210;16.234;2022-09-29T11:09:52;97579.88;;;18.82;48.39
51099;BME280;37146;48.210;16.234;2022-09-29T11:12:29;97582.97;;;19.04;46.91
51099;BME280;37146;48.210;16.234;2022-09-29T11:14:56;97575.78;;;18.69;47.92
51099;BME280;37146;48.210;16.234;2022-09-29T11:19:53;97575.03;;;18.43;49.12
51099;BME280;37146;48.210;16.234;2022-09-29T11:27:24;97553.59;;;18.66;47.49
51099;BME280;37146;48.210;16.234;2022-09-29T11:35:12;97556.06;;;20.00;46.17
51099;BME280;37146;48.210;16.234;2022-09-29T11:41:09;97574.63;;;20.19;43.79
51099;BME280;37146;48.210;16.234;2022-09-29T11:53:39;97564.13;;;17.83;49.67
51099;BME280;37146;48.210;16.234;2022-09-29T11:56:18;97559.84;;;17.99;53.13
51099;BME280;37146;48.210;16.234;2022-09-29T11:58:54;97569.78;;;17.98;49.33
51099;BME280;37146;48.210;16.234;2022-09-29T12:06:52;97557.50;;;17.25;53.39
51099;BME280;37146;48.210;16.234;2022-09-29T12:14:16;97578.41;;;16.32;56.35
51099;BME280;37146;48.210;16.234;2022-09-29T12:16:56;97586.53;;;15.95;57.48
51099;BME280;37146;48.210;16.234;2022-09-29T12:19:23;97574.78;;;15.86;59.62
51099;BME280;37146;48.210;16.234;2022-09-29T12:21:51;97567.56;;;16.14;59.84
51099;BME280;37146;48.210;16.234;2022-09-29T12:24:32;97566.47;;;15.69;59.80
51099;BME280;37146;48.210;16.234;2022-09-29T12:26:58;97559.69;;;15.55;59.05
51099;BME280;37146;48.210;16.234;2022-09-29T12:29:43;97564.53;;;15.52;62.23
51099;BME280;37146;48.210;16.234;2022-09-29T12:34:45;97572.09;;;15.28;62.04
51099;BME280;37146;48.210;16.234;2022-09-29T12:42:19;97561.09;;;15.02;61.98
51099;BME280;37146;48.210;16.234;2022-09-29T12:44:48;97563.22;;;14.98;62.75
51099;BME280;37146;48.210;16.234;2022-09-29T12:47:18;97568.31;;;15.02;62.92
51099;BME280;37146;48.210;16.234;2022-09-29T12:50:08;97559.25;;;14.83;63.96
51099;BME280;37146;48.210;16.234;2022-09-29T12:52:38;97554.72;;;14.83;64.14
51099;BME280;37146;48.210;16.234;2022-09-29T12:55:06;97549.44;;;15.11;63.89
51099;BME280;37146;48.210;16.234;2022-09-29T12:57:36;97551.13;;;15.22;61.43
51099;BME280;37146;48.210;16.234;2022-09-29T13:00:05;97549.84;;;15.36;63.30
51099;BME280;37146;48.210;16.234;2022-09-29T13:20:54;97546.34;;;14.96;62.98
51099;BME280;37146;48.210;16.234;2022-09-29T13:31:07;97567.31;;;15.12;61.03
51099;BME280;37146;48.210;16.234;2022-09-29T13:33:35;97562.63;;;15.05;62.53
51099;BME280;37146;48.210;16.234;2022-09-29T13:36:01;97566.03;;;14.97;62.33
51099;BME280;37146;48.210;16.234;2022-09-29T13:38:27;97574.69;;;14.91;63.91
51099;BME280;37146;48.210;16.234;2022-09-29T13:43:38;97583.47;;;14.83;64.47
51099;BME280;37146;48.210;16.234;2022-09-29T13:48:51;97581.34;;;14.67;63.75
51099;BME280;37146;48.210;16.234;2022-09-29T13:51:22;97583.72;;;14.60;63.76
51099;BME280;37146;48.210;16.234;2022-09-29T13:54:12;97580.03;;;14.61;64.43
51099;BME280;37146;48.210;16.234;2022-09-29T13:56:33;97573.56;;;14.74;63.86
51099;BME280;37146;48.210;16.234;2022-09-29T13:58:59;97570.03;;;14.83;64.24
51099;BME280;37146;48.210;16.234;2022-09-29T14:01:29;97559.22;;;15.03;63.39
51099;BME280;37146;48.210;16.234;2022-09-29T14:03:56;97564.47;;;15.14;61.83
51099;BME280;37146;48.210;16.234;2022-09-29T14:06:23;97578.78;;;15.05;62.38
51099;BME280;37146;48.210;16.234;2022-09-29T14:08:50;97569.72;;;14.96;61.85
51099;BME280;37146;48.210;16.234;2022-09-29T14:11:20;97574.81;;;14.89;64.07
51099;BME280;37146;48.210;16.234;2022-09-29T14:13:56;97572.41;;;15.06;63.40
51099;BME280;37146;48.210;16.234;2022-09-29T14:18:53;97573.56;;;14.74;64.83
51099;BME280;37146;48.210;16.234;2022-09-29T14:24:15;97576.91;;;14.56;65.20
51099;BME280;37146;48.210;16.234;2022-09-29T14:26:52;97581.75;;;14.72;65.34
51099;BME280;37146;48.210;16.234;2022-09-29T14:29:29;97568.41;;;14.61;64.68
51099;BME280;37146;48.210;16.234;2022-09-29T14:31:56;97568.56;;;14.59;64.87
51099;BME280;37146;48.210;16.234;2022-09-29T14:34:24;97565.34;;;14.75;65.25
51099;BME280;37146;48.210;16.234;2022-09-29T14:36:51;97563.06;;;14.71;65.11
51099;BME280;37146;48.210;16.234;2022-09-29T14:39:18;97564.03;;;14.60;63.94
51099;BME280;37146;48.210;16.234;2022-09-29T14:41:45;97567.00;;;14.57;65.91
51099;BME280;37146;48.210;16.234;2022-09-29T14:44:33;97566.56;;;14.51;65.03
51099;BME280;37146;48.210;16.234;2022-09-29T14:47:37;97577.34;;;14.42;65.34
51099;BME280;37146;48.210;16.234;2022-09-29T15:01:20;97593.13;;;13.84;69.54
51099;BME280;37146;48.210;16.234;2022-09-29T15:03:49;97594.25;;;13.72;69.37
51099;BME280;37146;48.210;16.234;2022-09-29T15:06:19;97595.06;;;13.72;70.61
51099;BME280;37146;48.210;16.234;2022-09-29T15:11:41;97594.81;;;13.75;70.83
51099;BME280;37146;48.210;16.234;2022-09-29T15:16:44;97601.16;;;13.74;71.80
51099;BME280;37146;48.210;16.234;2022-09-29T15:21:54;97611.44;;;13.69;72.44
51099;BME280;37146;48.210;16.234;2022-09-29T15:24:36;97613.56;;;13.66;73.02
51099;BME280;37146;48.210;16.234;2022-09-29T15:27:05;97617.50;;;13.61;73.08
51099;BME280;37146;48.210;16.234;2022-09-29T15:29:34;97615.94;;;13.59;73.35
51099;BME280;37146;48.210;16.234;2022-09-29T15:32:00;97618.75;;;13.57;73.45
51099;BME280;37146;48.210;16.234;2022-09-29T15:34:26;97624.53;;;13.53;73.93
51099;BME280;37146;48.210;16.234;2022-09-29T15:36:51;97619.88;;;13.55;74.02
51099;BME280;37146;48.210;16.234;2022-09-29T15:42:02;97636.25;;;13.52;74.47
51099;BME280;37146;48.210;16.234;2022-09-29T15:44:29;97634.38;;;13.42;74.38
51099;BME280;37146;48.210;16.234;2022-09-29T15:46:56;97638.88;;;13.42;75.50
51099;BME280;37146;48.210;16.234;2022-09-29T15:49:22;97647.69;;;13.33;75.72
51099;BME280;37146;48.210;16.234;2022-09-29T15:52:04;97648.06;;;13.28;76.47
51099;BME280;37146;48.210;16.234;2022-09-29T15:54:34;97654.66;;;13.24;76.46